Beni-Mellal, Morocco
Current Conditions -  °F | °C
As of 9:30 AM on Tuesday 27 Jan 2015 (Local Time) from GMMN Reporting Station
Scattered Clouds Scattered Clouds  
Wind Chill: 37°   Ceiling: Unl
Heat Index: 37°   Visibility: 2.5mi
Dew Point: 37°   Wind: 3mph
Humidity: 100%   Direction: 40°NE
Pressure: 30.39"   Gusts: NA
Location:  32.35°N, 6.37°W
Report Text: GMMN 270830Z 04003KT 4100 SCT010 03/03 Q1029 NOSIG
Loading
Personal Weather Stations






























Interactive Weather Map New forecast layout! Learn more

10-Day Weather Forecast

Advertisements
Track Severe Weather on mobile